sensor_id;sensor_type;location;lat;lon;timestamp;temperature;humidity
44990;DHT22;30723;51.206;3.326;2022-11-18T00:03:35;9.80;99.90
44990;DHT22;30723;51.206;3.326;2022-11-18T00:06:01;9.90;99.90
44990;DHT22;30723;51.206;3.326;2022-11-18T00:08:27;9.80;99.90
44990;DHT22;30723;51.206;3.326;2022-11-18T00:10:52;9.80;99.90
44990;DHT22;30723;51.206;3.326;2022-11-18T00:13:19;9.80;99.90
44990;DHT22;30723;51.206;3.326;2022-11-18T00:16:05;9.80;99.90
44990;DHT22;30723;51.206;3.326;2022-11-18T00:18:32;9.80;99.90
44990;DHT22;30723;51.206;3.326;2022-11-18T00:21:02;9.80;99.90
44990;DHT22;30723;51.206;3.326;2022-11-18T00:23:29;9.80;99.90
44990;DHT22;30723;51.206;3.326;2022-11-18T00:25:54;9.70;99.90
44990;DHT22;30723;51.206;3.326;2022-11-18T00:28:20;9.70;99.90
44990;DHT22;30723;51.206;3.326;2022-11-18T00:30:46;9.70;99.90
44990;DHT22;30723;51.206;3.326;2022-11-18T00:33:12;9.70;99.90
44990;DHT22;30723;51.206;3.326;2022-11-18T00:35:37;9.70;99.90
44990;DHT22;30723;51.206;3.326;2022-11-18T00:38:03;9.70;99.90
44990;DHT22;30723;51.206;3.326;2022-11-18T00:40:29;9.70;99.90
44990;DHT22;30723;51.206;3.326;2022-11-18T00:42:54;9.60;99.90
44990;DHT22;30723;51.206;3.326;2022-11-18T00:45:21;9.60;99.90
44990;DHT22;30723;51.206;3.326;2022-11-18T00:47:47;9.70;99.90
44990;DHT22;30723;51.206;3.326;2022-11-18T00:50:12;9.70;99.90
44990;DHT22;30723;51.206;3.326;2022-11-18T00:52:38;9.70;99.90
44990;DHT22;30723;51.206;3.326;2022-11-18T00:55:06;9.60;99.90
44990;DHT22;30723;51.206;3.326;2022-11-18T00:57:32;9.60;99.90
44990;DHT22;30723;51.206;3.326;2022-11-18T00:59:57;9.60;99.90
44990;DHT22;30723;51.206;3.326;2022-11-18T01:02:23;9.60;99.90
44990;DHT22;30723;51.206;3.326;2022-11-18T01:04:49;9.60;99.90
44990;DHT22;30723;51.206;3.326;2022-11-18T01:07:15;9.60;99.90
44990;DHT22;30723;51.206;3.326;2022-11-18T01:09:40;9.60;99.90
44990;DHT22;30723;51.206;3.326;2022-11-18T01:12:08;9.50;99.90
44990;DHT22;30723;51.206;3.326;2022-11-18T01:14:52;9.50;99.90
44990;DHT22;30723;51.206;3.326;2022-11-18T01:17:18;9.50;99.90
44990;DHT22;30723;51.206;3.326;2022-11-18T01:19:44;9.50;99.90
44990;DHT22;30723;51.206;3.326;2022-11-18T01:22:10;9.50;99.90
44990;DHT22;30723;51.206;3.326;2022-11-18T01:24:35;9.50;99.90
44990;DHT22;30723;51.206;3.326;2022-11-18T01:27:01;9.50;99.90
44990;DHT22;30723;51.206;3.326;2022-11-18T01:29:27;9.50;99.90
44990;DHT22;30723;51.206;3.326;2022-11-18T01:31:53;9.40;99.90
44990;DHT22;30723;51.206;3.326;2022-11-18T01:34:19;9.40;99.90
44990;DHT22;30723;51.206;3.326;2022-11-18T01:36:44;9.40;99.90
44990;DHT22;30723;51.206;3.326;2022-11-18T01:39:10;9.40;99.90
44990;DHT22;30723;51.206;3.326;2022-11-18T01:41:36;9.40;99.90
44990;DHT22;30723;51.206;3.326;2022-11-18T01:44:52;9.40;99.90
44990;DHT22;30723;51.206;3.326;2022-11-18T01:46:51;9.40;99.90
44990;DHT22;30723;51.206;3.326;2022-11-18T01:49:17;9.40;99.90
44990;DHT22;30723;51.206;3.326;2022-11-18T01:51:54;9.50;99.90
44990;DHT22;30723;51.206;3.326;2022-11-18T01:54:30;9.40;99.90
44990;DHT22;30723;51.206;3.326;2022-11-18T01:56:59;9.40;99.90
44990;DHT22;30723;51.206;3.326;2022-11-18T01:59:30;9.40;99.90
44990;DHT22;30723;51.206;3.326;2022-11-18T02:01:58;9.40;99.90
44990;DHT22;30723;51.206;3.326;2022-11-18T02:04:26;9.40;99.90
44990;DHT22;30723;51.206;3.326;2022-11-18T02:06:53;9.40;99.90
44990;DHT22;30723;51.206;3.326;2022-11-18T02:09:19;9.40;99.90
44990;DHT22;30723;51.206;3.326;2022-11-18T02:11:47;9.30;99.90
44990;DHT22;30723;51.206;3.326;2022-11-18T02:14:19;9.40;99.90
44990;DHT22;30723;51.206;3.326;2022-11-18T02:25:44;9.30;99.90
44990;DHT22;30723;51.206;3.326;2022-11-18T02:31:17;9.20;99.90
44990;DHT22;30723;51.206;3.326;2022-11-18T02:34:02;9.10;99.90
44990;DHT22;30723;51.206;3.326;2022-11-18T02:39:06;9.10;99.90
44990;DHT22;30723;51.206;3.326;2022-11-18T02:41:34;9.10;99.90
44990;DHT22;30723;51.206;3.326;2022-11-18T02:44:08;9.10;99.90
44990;DHT22;30723;51.206;3.326;2022-11-18T02:46:37;9.10;99.90
44990;DHT22;30723;51.206;3.326;2022-11-18T02:49:08;9.10;99.90
44990;DHT22;30723;51.206;3.326;2022-11-18T02:51:34;9.00;99.90
44990;DHT22;30723;51.206;3.326;2022-11-18T02:54:04;9.00;99.90
44990;DHT22;30723;51.206;3.326;2022-11-18T02:56:32;9.00;99.90
44990;DHT22;30723;51.206;3.326;2022-11-18T02:58:59;9.00;99.90
44990;DHT22;30723;51.206;3.326;2022-11-18T03:01:30;9.00;99.90
44990;DHT22;30723;51.206;3.326;2022-11-18T03:03:56;9.00;99.90
44990;DHT22;30723;51.206;3.326;2022-11-18T03:09:04;8.90;99.90
44990;DHT22;30723;51.206;3.326;2022-11-18T03:14:35;8.90;99.90
44990;DHT22;30723;51.206;3.326;2022-11-18T03:17:22;8.80;99.90
44990;DHT22;30723;51.206;3.326;2022-11-18T03:22:39;8.80;99.90
44990;DHT22;30723;51.206;3.326;2022-11-18T03:25:11;8.70;99.90
44990;DHT22;30723;51.206;3.326;2022-11-18T03:30:23;8.80;99.90
44990;DHT22;30723;51.206;3.326;2022-11-18T03:33:04;8.80;99.90
44990;DHT22;30723;51.206;3.326;2022-11-18T03:35:34;8.80;99.90
44990;DHT22;30723;51.206;3.326;2022-11-18T03:38:12;8.80;99.90
44990;DHT22;30723;51.206;3.326;2022-11-18T03:40:40;8.80;99.90
44990;DHT22;30723;51.206;3.326;2022-11-18T03:43:12;8.80;99.90
44990;DHT22;30723;51.206;3.326;2022-11-18T03:45:47;8.70;99.90
44990;DHT22;30723;51.206;3.326;2022-11-18T03:48:18;8.70;99.90
44990;DHT22;30723;51.206;3.326;2022-11-18T03:50:53;8.60;99.90
44990;DHT22;30723;51.206;3.326;2022-11-18T03:53:20;8.70;99.90
44990;DHT22;30723;51.206;3.326;2022-11-18T03:55:52;8.70;99.90
44990;DHT22;30723;51.206;3.326;2022-11-18T03:58:46;8.70;99.90
44990;DHT22;30723;51.206;3.326;2022-11-18T04:01:17;8.70;99.90
44990;DHT22;30723;51.206;3.326;2022-11-18T04:03:45;8.60;99.90
44990;DHT22;30723;51.206;3.326;2022-11-18T04:09:00;8.60;99.90
44990;DHT22;30723;51.206;3.326;2022-11-18T04:11:32;8.60;99.90
44990;DHT22;30723;51.206;3.326;2022-11-18T04:14:18;8.60;99.90
44990;DHT22;30723;51.206;3.326;2022-11-18T04:16:50;8.70;99.90
44990;DHT22;30723;51.206;3.326;2022-11-18T04:19:16;8.70;99.90
44990;DHT22;30723;51.206;3.326;2022-11-18T04:21:42;8.70;99.90
44990;DHT22;30723;51.206;3.326;2022-11-18T04:24:08;8.70;99.90
44990;DHT22;30723;51.206;3.326;2022-11-18T04:26:33;8.70;99.90
44990;DHT22;30723;51.206;3.326;2022-11-18T04:28:59;8.60;99.90
44990;DHT22;30723;51.206;3.326;2022-11-18T04:31:25;8.60;99.90
44990;DHT22;30723;51.206;3.326;2022-11-18T04:33:50;8.60;99.90
44990;DHT22;30723;51.206;3.326;2022-11-18T04:36:16;8.60;99.90
44990;DHT22;30723;51.206;3.326;2022-11-18T04:38:42;8.60;99.90
44990;DHT22;30723;51.206;3.326;2022-11-18T04:41:08;8.60;99.90
44990;DHT22;30723;51.206;3.326;2022-11-18T04:43:33;8.60;99.90
44990;DHT22;30723;51.206;3.326;2022-11-18T04:45:59;8.60;99.90
44990;DHT22;30723;51.206;3.326;2022-11-18T04:48:25;8.70;99.90
44990;DHT22;30723;51.206;3.326;2022-11-18T04:50:51;8.80;99.90
44990;DHT22;30723;51.206;3.326;2022-11-18T04:53:16;8.80;99.90
44990;DHT22;30723;51.206;3.326;2022-11-18T04:55:42;8.80;99.90
44990;DHT22;30723;51.206;3.326;2022-11-18T04:58:08;8.80;99.90
44990;DHT22;30723;51.206;3.326;2022-11-18T05:00:34;8.80;99.90
44990;DHT22;30723;51.206;3.326;2022-11-18T05:02:59;8.90;99.90
44990;DHT22;30723;51.206;3.326;2022-11-18T05:05:25;8.90;99.90
44990;DHT22;30723;51.206;3.326;2022-11-18T05:07:51;9.00;99.90
44990;DHT22;30723;51.206;3.326;2022-11-18T05:10:16;9.00;99.90
44990;DHT22;30723;51.206;3.326;2022-11-18T05:12:42;9.00;99.90
44990;DHT22;30723;51.206;3.326;2022-11-18T05:15:18;9.00;99.90
44990;DHT22;30723;51.206;3.326;2022-11-18T05:17:45;9.10;99.90
44990;DHT22;30723;51.206;3.326;2022-11-18T05:20:11;9.10;99.90
44990;DHT22;30723;51.206;3.326;2022-11-18T05:22:37;9.20;99.90
44990;DHT22;30723;51.206;3.326;2022-11-18T05:25:03;9.20;99.90
44990;DHT22;30723;51.206;3.326;2022-11-18T05:27:29;9.20;99.90
44990;DHT22;30723;51.206;3.326;2022-11-18T05:29:55;9.20;99.90
44990;DHT22;30723;51.206;3.326;2022-11-18T05:32:21;9.20;99.90
44990;DHT22;30723;51.206;3.326;2022-11-18T05:34:47;9.20;99.90
44990;DHT22;30723;51.206;3.326;2022-11-18T05:37:12;9.20;99.90
44990;DHT22;30723;51.206;3.326;2022-11-18T05:39:38;9.20;99.90
44990;DHT22;30723;51.206;3.326;2022-11-18T05:42:04;9.20;99.90
44990;DHT22;30723;51.206;3.326;2022-11-18T05:44:48;9.20;99.90
44990;DHT22;30723;51.206;3.326;2022-11-18T05:47:16;9.20;99.90
44990;DHT22;30723;51.206;3.326;2022-11-18T05:49:42;9.20;99.90
44990;DHT22;30723;51.206;3.326;2022-11-18T05:52:08;9.30;99.90
44990;DHT22;30723;51.206;3.326;2022-11-18T05:54:34;9.30;99.90
44990;DHT22;30723;51.206;3.326;2022-11-18T05:57:00;9.30;99.90
44990;DHT22;30723;51.206;3.326;2022-11-18T05:59:25;9.20;99.90
44990;DHT22;30723;51.206;3.326;2022-11-18T06:02:13;9.20;99.90
44990;DHT22;30723;51.206;3.326;2022-11-18T06:04:48;9.30;99.90
44990;DHT22;30723;51.206;3.326;2022-11-18T06:07:27;9.30;99.90
44990;DHT22;30723;51.206;3.326;2022-11-18T06:09:58;9.40;99.90
44990;DHT22;30723;51.206;3.326;2022-11-18T06:12:29;9.40;99.90
44990;DHT22;30723;51.206;3.326;2022-11-18T06:15:03;9.30;99.90
44990;DHT22;30723;51.206;3.326;2022-11-18T06:17:35;9.30;99.90
44990;DHT22;30723;51.206;3.326;2022-11-18T06:20:04;9.30;99.90
44990;DHT22;30723;51.206;3.326;2022-11-18T06:22:30;9.30;99.90
44990;DHT22;30723;51.206;3.326;2022-11-18T06:24:56;9.30;99.90
44990;DHT22;30723;51.206;3.326;2022-11-18T06:27:22;9.30;99.90
44990;DHT22;30723;51.206;3.326;2022-11-18T06:29:47;9.30;99.90
44990;DHT22;30723;51.206;3.326;2022-11-18T06:32:13;9.30;99.90
44990;DHT22;30723;51.206;3.326;2022-11-18T06:34:39;9.30;99.90
44990;DHT22;30723;51.206;3.326;2022-11-18T06:37:15;9.30;99.90
44990;DHT22;30723;51.206;3.326;2022-11-18T06:39:41;9.30;99.90
44990;DHT22;30723;51.206;3.326;2022-11-18T06:42:07;9.30;99.90
44990;DHT22;30723;51.206;3.326;2022-11-18T06:44:33;9.40;99.90
44990;DHT22;30723;51.206;3.326;2022-11-18T06:46:58;9.30;99.90
44990;DHT22;30723;51.206;3.326;2022-11-18T06:49:26;9.30;99.90
44990;DHT22;30723;51.206;3.326;2022-11-18T06:51:53;9.30;99.90
44990;DHT22;30723;51.206;3.326;2022-11-18T06:54:19;9.30;99.90
44990;DHT22;30723;51.206;3.326;2022-11-18T06:56:45;9.30;99.90
44990;DHT22;30723;51.206;3.326;2022-11-18T06:59:11;9.20;99.90
44990;DHT22;30723;51.206;3.326;2022-11-18T07:01:38;9.20;99.90
44990;DHT22;30723;51.206;3.326;2022-11-18T07:04:05;9.20;99.90
44990;DHT22;30723;51.206;3.326;2022-11-18T07:06:33;9.30;99.90
44990;DHT22;30723;51.206;3.326;2022-11-18T07:09:00;9.30;99.90
44990;DHT22;30723;51.206;3.326;2022-11-18T07:11:27;9.20;99.90
44990;DHT22;30723;51.206;3.326;2022-11-18T07:13:53;9.30;99.90
44990;DHT22;30723;51.206;3.326;2022-11-18T07:16:23;9.30;99.90
44990;DHT22;30723;51.206;3.326;2022-11-18T07:18:50;9.30;99.90
44990;DHT22;30723;51.206;3.326;2022-11-18T07:21:22;9.30;99.90
44990;DHT22;30723;51.206;3.326;2022-11-18T07:23:48;9.30;99.90
44990;DHT22;30723;51.206;3.326;2022-11-18T07:26:15;9.30;99.90
44990;DHT22;30723;51.206;3.326;2022-11-18T07:28:41;9.40;99.90
44990;DHT22;30723;51.206;3.326;2022-11-18T07:31:12;9.30;99.90
44990;DHT22;30723;51.206;3.326;2022-11-18T07:33:39;9.30;99.90
44990;DHT22;30723;51.206;3.326;2022-11-18T07:36:14;9.40;99.90
44990;DHT22;30723;51.206;3.326;2022-11-18T07:38:40;9.40;99.90
44990;DHT22;30723;51.206;3.326;2022-11-18T07:43:43;9.40;99.90
44990;DHT22;30723;51.206;3.326;2022-11-18T07:46:24;9.40;99.90
44990;DHT22;30723;51.206;3.326;2022-11-18T07:48:52;9.40;99.90
44990;DHT22;30723;51.206;3.326;2022-11-18T07:51:20;9.40;99.90
44990;DHT22;30723;51.206;3.326;2022-11-18T07:53:46;9.40;99.90
44990;DHT22;30723;51.206;3.326;2022-11-18T07:56:13;9.50;99.90
44990;DHT22;30723;51.206;3.326;2022-11-18T07:58:40;9.50;99.90
44990;DHT22;30723;51.206;3.326;2022-11-18T08:01:10;9.50;99.90
44990;DHT22;30723;51.206;3.326;2022-11-18T08:03:37;9.50;99.90
44990;DHT22;30723;51.206;3.326;2022-11-18T08:06:04;9.60;99.90
44990;DHT22;30723;51.206;3.326;2022-11-18T08:08:31;9.60;99.90
44990;DHT22;30723;51.206;3.326;2022-11-18T08:10:58;9.60;99.90
44990;DHT22;30723;51.206;3.326;2022-11-18T08:13:24;9.60;99.90
44990;DHT22;30723;51.206;3.326;2022-11-18T08:15:50;9.60;99.90
44990;DHT22;30723;51.206;3.326;2022-11-18T08:18:16;9.60;99.90
44990;DHT22;30723;51.206;3.326;2022-11-18T08:20:42;9.60;99.90
44990;DHT22;30723;51.206;3.326;2022-11-18T08:23:10;9.70;99.90
44990;DHT22;30723;51.206;3.326;2022-11-18T08:25:36;9.70;99.90
44990;DHT22;30723;51.206;3.326;2022-11-18T08:28:02;9.80;99.90
44990;DHT22;30723;51.206;3.326;2022-11-18T08:30:27;9.80;99.90
44990;DHT22;30723;51.206;3.326;2022-11-18T08:32:54;9.80;99.90
44990;DHT22;30723;51.206;3.326;2022-11-18T08:35:22;9.80;99.90
44990;DHT22;30723;51.206;3.326;2022-11-18T08:37:47;9.80;99.90
44990;DHT22;30723;51.206;3.326;2022-11-18T08:40:16;9.80;99.90
44990;DHT22;30723;51.206;3.326;2022-11-18T08:42:41;9.80;99.90
44990;DHT22;30723;51.206;3.326;2022-11-18T08:45:07;9.70;99.90
44990;DHT22;30723;51.206;3.326;2022-11-18T08:47:34;9.70;99.90
44990;DHT22;30723;51.206;3.326;2022-11-18T08:50:00;9.70;99.90
44990;DHT22;30723;51.206;3.326;2022-11-18T08:52:26;9.70;99.90
44990;DHT22;30723;51.206;3.326;2022-11-18T08:54:51;9.60;99.90
44990;DHT22;30723;51.206;3.326;2022-11-18T08:57:17;9.60;99.90
44990;DHT22;30723;51.206;3.326;2022-11-18T08:59:43;9.60;99.90
44990;DHT22;30723;51.206;3.326;2022-11-18T09:02:17;9.60;99.90
44990;DHT22;30723;51.206;3.326;2022-11-18T09:04:45;9.70;99.90
44990;DHT22;30723;51.206;3.326;2022-11-18T09:07:10;9.60;99.90
44990;DHT22;30723;51.206;3.326;2022-11-18T09:09:36;9.60;99.90
44990;DHT22;30723;51.206;3.326;2022-11-18T09:12:02;9.60;99.90
44990;DHT22;30723;51.206;3.326;2022-11-18T09:14:28;9.70;99.90
44990;DHT22;30723;51.206;3.326;2022-11-18T09:16:53;9.70;99.90
44990;DHT22;30723;51.206;3.326;2022-11-18T09:19:19;9.70;99.90
44990;DHT22;30723;51.206;3.326;2022-11-18T09:21:45;9.60;99.90
44990;DHT22;30723;51.206;3.326;2022-11-18T09:24:11;9.60;99.90
44990;DHT22;30723;51.206;3.326;2022-11-18T09:26:37;9.60;99.90
44990;DHT22;30723;51.206;3.326;2022-11-18T09:29:03;9.80;99.90
44990;DHT22;30723;51.206;3.326;2022-11-18T09:31:29;9.90;99.90
44990;DHT22;30723;51.206;3.326;2022-11-18T09:33:57;9.90;99.90
44990;DHT22;30723;51.206;3.326;2022-11-18T09:36:24;10.00;99.90
44990;DHT22;30723;51.206;3.326;2022-11-18T09:38:51;9.90;99.90
44990;DHT22;30723;51.206;3.326;2022-11-18T09:41:26;10.00;99.90
44990;DHT22;30723;51.206;3.326;2022-11-18T09:49:31;9.90;99.90
44990;DHT22;30723;51.206;3.326;2022-11-18T09:52:23;9.90;99.90
44990;DHT22;30723;51.206;3.326;2022-11-18T09:54:47;9.90;99.90
44990;DHT22;30723;51.206;3.326;2022-11-18T09:57:42;10.00;99.90
44990;DHT22;30723;51.206;3.326;2022-11-18T10:00:14;10.00;99.90
44990;DHT22;30723;51.206;3.326;2022-11-18T10:05:21;10.00;99.90
44990;DHT22;30723;51.206;3.326;2022-11-18T10:10:55;10.00;99.90
44990;DHT22;30723;51.206;3.326;2022-11-18T10:22:18;10.00;99.90
44990;DHT22;30723;51.206;3.326;2022-11-18T10:24:49;10.10;99.90
44990;DHT22;30723;51.206;3.326;2022-11-18T10:27:16;10.00;99.90
44990;DHT22;30723;51.206;3.326;2022-11-18T10:29:44;10.10;99.90
44990;DHT22;30723;51.206;3.326;2022-11-18T10:32:13;10.10;99.90
44990;DHT22;30723;51.206;3.326;2022-11-18T10:37:24;10.20;99.90
44990;DHT22;30723;51.206;3.326;2022-11-18T10:40:01;10.10;99.90
44990;DHT22;30723;51.206;3.326;2022-11-18T10:42:36;10.10;99.90
44990;DHT22;30723;51.206;3.326;2022-11-18T10:48:09;10.20;99.90
44990;DHT22;30723;51.206;3.326;2022-11-18T10:50:46;10.30;99.90
44990;DHT22;30723;51.206;3.326;2022-11-18T10:53:33;10.30;99.90
44990;DHT22;30723;51.206;3.326;2022-11-18T10:56:04;10.40;99.90
44990;DHT22;30723;51.206;3.326;2022-11-18T10:58:34;10.40;99.90
44990;DHT22;30723;51.206;3.326;2022-11-18T11:01:06;10.30;99.90
44990;DHT22;30723;51.206;3.326;2022-11-18T11:03:40;10.30;99.90
44990;DHT22;30723;51.206;3.326;2022-11-18T11:09:04;10.20;99.90
44990;DHT22;30723;51.206;3.326;2022-11-18T11:22:20;10.20;99.90
44990;DHT22;30723;51.206;3.326;2022-11-18T11:24:46;10.20;99.90
44990;DHT22;30723;51.206;3.326;2022-11-18T11:51:53;10.30;99.90
44990;DHT22;30723;51.206;3.326;2022-11-18T11:56:56;10.40;99.90
44990;DHT22;30723;51.206;3.326;2022-11-18T12:00:26;10.40;99.90
44990;DHT22;30723;51.206;3.326;2022-11-18T12:02:49;10.30;99.90
44990;DHT22;30723;51.206;3.326;2022-11-18T12:08:03;10.30;99.90
44990;DHT22;30723;51.206;3.326;2022-11-18T12:19:37;10.50;99.90
44990;DHT22;30723;51.206;3.326;2022-11-18T12:22:03;10.50;99.90
44990;DHT22;30723;51.206;3.326;2022-11-18T12:24:40;10.50;99.90
44990;DHT22;30723;51.206;3.326;2022-11-18T12:27:12;10.50;99.90
44990;DHT22;30723;51.206;3.326;2022-11-18T12:29:54;10.60;99.90
44990;DHT22;30723;51.206;3.326;2022-11-18T12:34:57;10.70;99.90
44990;DHT22;30723;51.206;3.326;2022-11-18T12:42:41;10.70;99.90
44990;DHT22;30723;51.206;3.326;2022-11-18T12:50:50;10.80;99.90
44990;DHT22;30723;51.206;3.326;2022-11-18T12:53:39;10.70;99.90
44990;DHT22;30723;51.206;3.326;2022-11-18T12:56:28;10.70;99.90
44990;DHT22;30723;51.206;3.326;2022-11-18T12:58:59;10.80;99.90
44990;DHT22;30723;51.206;3.326;2022-11-18T13:01:27;10.80;99.90
44990;DHT22;30723;51.206;3.326;2022-11-18T13:04:06;10.90;99.90
44990;DHT22;30723;51.206;3.326;2022-11-18T13:06:33;10.90;99.90
44990;DHT22;30723;51.206;3.326;2022-11-18T13:09:02;10.90;99.90
44990;DHT22;30723;51.206;3.326;2022-11-18T13:11:30;11.00;99.90
44990;DHT22;30723;51.206;3.326;2022-11-18T13:14:37;11.10;99.90
44990;DHT22;30723;51.206;3.326;2022-11-18T13:33:53;11.10;99.90
44990;DHT22;30723;51.206;3.326;2022-11-18T13:39:04;11.30;99.90
44990;DHT22;30723;51.206;3.326;2022-11-18T13:41:32;11.20;99.90
44990;DHT22;30723;51.206;3.326;2022-11-18T13:44:24;11.20;99.90
44990;DHT22;30723;51.206;3.326;2022-11-18T13:52:02;11.30;99.90
44990;DHT22;30723;51.206;3.326;2022-11-18T13:54:28;11.30;99.90
44990;DHT22;30723;51.206;3.326;2022-11-18T13:56:54;11.30;99.90
44990;DHT22;30723;51.206;3.326;2022-11-18T13:59:22;11.30;99.90
44990;DHT22;30723;51.206;3.326;2022-11-18T14:01:55;11.30;99.90
44990;DHT22;30723;51.206;3.326;2022-11-18T14:04:27;11.30;99.90
44990;DHT22;30723;51.206;3.326;2022-11-18T14:09:57;11.20;99.90
44990;DHT22;30723;51.206;3.326;2022-11-18T14:12:25;11.20;99.90
44990;DHT22;30723;51.206;3.326;2022-11-18T14:15:15;11.10;99.90
44990;DHT22;30723;51.206;3.326;2022-11-18T14:17:56;11.20;99.90
44990;DHT22;30723;51.206;3.326;2022-11-18T14:20:25;11.10;99.90
44990;DHT22;30723;51.206;3.326;2022-11-18T14:23:00;11.10;99.90
44990;DHT22;30723;51.206;3.326;2022-11-18T14:25:31;11.10;99.90
44990;DHT22;30723;51.206;3.326;2022-11-18T14:31:20;11.10;99.90
44990;DHT22;30723;51.206;3.326;2022-11-18T14:34:16;11.10;99.90
44990;DHT22;30723;51.206;3.326;2022-11-18T14:36:46;11.00;99.90
44990;DHT22;30723;51.206;3.326;2022-11-18T14:39:28;11.00;99.90
44990;DHT22;30723;51.206;3.326;2022-11-18T14:41:54;11.00;99.90
44990;DHT22;30723;51.206;3.326;2022-11-18T14:44:22;11.10;99.90
44990;DHT22;30723;51.206;3.326;2022-11-18T14:47:00;11.00;99.90
44990;DHT22;30723;51.206;3.326;2022-11-18T14:49:27;11.00;99.90
44990;DHT22;30723;51.206;3.326;2022-11-18T14:51:56;10.90;99.90
44990;DHT22;30723;51.206;3.326;2022-11-18T14:54:24;11.00;99.90
44990;DHT22;30723;51.206;3.326;2022-11-18T14:56:51;11.00;99.90
44990;DHT22;30723;51.206;3.326;2022-11-18T14:59:19;11.00;99.90
44990;DHT22;30723;51.206;3.326;2022-11-18T15:01:45;11.00;99.90
44990;DHT22;30723;51.206;3.326;2022-11-18T15:04:13;11.00;99.90
44990;DHT22;30723;51.206;3.326;2022-11-18T15:06:40;11.00;99.90
44990;DHT22;30723;51.206;3.326;2022-11-18T15:09:06;11.10;99.90
44990;DHT22;30723;51.206;3.326;2022-11-18T15:11:35;11.10;99.90
44990;DHT22;30723;51.206;3.326;2022-11-18T15:14:01;11.10;99.90
44990;DHT22;30723;51.206;3.326;2022-11-18T15:16:29;11.10;99.90
44990;DHT22;30723;51.206;3.326;2022-11-18T15:18:57;11.10;99.90
44990;DHT22;30723;51.206;3.326;2022-11-18T15:21:24;11.10;99.90
44990;DHT22;30723;51.206;3.326;2022-11-18T15:23:50;11.20;99.90
44990;DHT22;30723;51.206;3.326;2022-11-18T15:28:49;11.30;99.90
44990;DHT22;30723;51.206;3.326;2022-11-18T15:31:16;11.40;99.90
44990;DHT22;30723;51.206;3.326;2022-11-18T15:33:43;11.40;99.90
44990;DHT22;30723;51.206;3.326;2022-11-18T15:36:13;11.40;99.90
44990;DHT22;30723;51.206;3.326;2022-11-18T15:38:40;11.40;99.90
44990;DHT22;30723;51.206;3.326;2022-11-18T15:41:06;11.40;99.90
44990;DHT22;30723;51.206;3.326;2022-11-18T15:43:32;11.30;99.90
44990;DHT22;30723;51.206;3.326;2022-11-18T15:45:58;11.30;99.90
44990;DHT22;30723;51.206;3.326;2022-11-18T15:48:24;11.20;99.90
44990;DHT22;30723;51.206;3.326;2022-11-18T15:50:50;11.20;99.90
44990;DHT22;30723;51.206;3.326;2022-11-18T15:53:16;11.20;99.90
44990;DHT22;30723;51.206;3.326;2022-11-18T15:55:41;11.20;99.90
44990;DHT22;30723;51.206;3.326;2022-11-18T15:58:07;11.20;99.90
44990;DHT22;30723;51.206;3.326;2022-11-18T16:00:33;11.20;99.90
44990;DHT22;30723;51.206;3.326;2022-11-18T16:02:59;11.30;99.90
44990;DHT22;30723;51.206;3.326;2022-11-18T16:05:24;11.20;99.90
44990;DHT22;30723;51.206;3.326;2022-11-18T16:07:50;11.20;99.90
44990;DHT22;30723;51.206;3.326;2022-11-18T16:10:16;11.10;99.90
44990;DHT22;30723;51.206;3.326;2022-11-18T16:13:00;11.10;99.90
44990;DHT22;30723;51.206;3.326;2022-11-18T16:15:26;11.00;99.90
44990;DHT22;30723;51.206;3.326;2022-11-18T16:18:13;11.10;99.90
44990;DHT22;30723;51.206;3.326;2022-11-18T16:20:39;11.10;99.90
44990;DHT22;30723;51.206;3.326;2022-11-18T16:23:05;11.10;99.90
44990;DHT22;30723;51.206;3.326;2022-11-18T16:25:31;11.00;99.90
44990;DHT22;30723;51.206;3.326;2022-11-18T16:27:57;11.10;99.90
44990;DHT22;30723;51.206;3.326;2022-11-18T16:30:23;11.10;99.90
44990;DHT22;30723;51.206;3.326;2022-11-18T16:33:07;11.10;99.90
44990;DHT22;30723;51.206;3.326;2022-11-18T16:35:33;11.10;99.90
44990;DHT22;30723;51.206;3.326;2022-11-18T16:37:59;11.10;99.90
44990;DHT22;30723;51.206;3.326;2022-11-18T16:40:24;11.10;99.90
44990;DHT22;30723;51.206;3.326;2022-11-18T16:42:51;11.10;99.90
44990;DHT22;30723;51.206;3.326;2022-11-18T16:45:17;11.10;99.90
44990;DHT22;30723;51.206;3.326;2022-11-18T16:47:43;11.10;99.90
44990;DHT22;30723;51.206;3.326;2022-11-18T16:50:10;11.10;99.90
44990;DHT22;30723;51.206;3.326;2022-11-18T16:52:36;11.20;99.90
44990;DHT22;30723;51.206;3.326;2022-11-18T16:55:01;11.10;99.90
44990;DHT22;30723;51.206;3.326;2022-11-18T16:57:27;11.10;99.90
44990;DHT22;30723;51.206;3.326;2022-11-18T16:59:53;11.00;99.90
44990;DHT22;30723;51.206;3.326;2022-11-18T17:02:19;11.00;99.90
44990;DHT22;30723;51.206;3.326;2022-11-18T17:04:44;10.90;99.90
44990;DHT22;30723;51.206;3.326;2022-11-18T17:07:11;10.90;99.90
44990;DHT22;30723;51.206;3.326;2022-11-18T17:09:37;10.80;99.90
44990;DHT22;30723;51.206;3.326;2022-11-18T17:12:03;10.90;99.90
44990;DHT22;30723;51.206;3.326;2022-11-18T17:14:29;10.90;99.90
44990;DHT22;30723;51.206;3.326;2022-11-18T17:16:55;10.90;99.90
44990;DHT22;30723;51.206;3.326;2022-11-18T17:19:22;10.80;99.90
44990;DHT22;30723;51.206;3.326;2022-11-18T17:21:49;10.80;99.90
44990;DHT22;30723;51.206;3.326;2022-11-18T17:24:17;10.80;99.90
44990;DHT22;30723;51.206;3.326;2022-11-18T17:26:44;10.70;99.90
44990;DHT22;30723;51.206;3.326;2022-11-18T17:29:11;10.80;99.90
44990;DHT22;30723;51.206;3.326;2022-11-18T17:31:38;10.80;99.90
44990;DHT22;30723;51.206;3.326;2022-11-18T17:34:07;10.70;99.90
44990;DHT22;30723;51.206;3.326;2022-11-18T17:36:33;10.80;99.90
44990;DHT22;30723;51.206;3.326;2022-11-18T17:38:59;10.70;99.90
44990;DHT22;30723;51.206;3.326;2022-11-18T17:41:27;10.70;99.90
44990;DHT22;30723;51.206;3.326;2022-11-18T17:44:14;10.60;99.90
44990;DHT22;30723;51.206;3.326;2022-11-18T17:46:40;10.60;99.90
44990;DHT22;30723;51.206;3.326;2022-11-18T17:49:11;10.50;99.90
44990;DHT22;30723;51.206;3.326;2022-11-18T17:51:40;10.50;99.90
44990;DHT22;30723;51.206;3.326;2022-11-18T17:54:07;10.50;99.90
44990;DHT22;30723;51.206;3.326;2022-11-18T17:56:33;10.50;99.90
44990;DHT22;30723;51.206;3.326;2022-11-18T17:58:59;10.50;99.90
44990;DHT22;30723;51.206;3.326;2022-11-18T18:01:24;10.50;99.90
44990;DHT22;30723;51.206;3.326;2022-11-18T18:03:50;10.40;99.90
44990;DHT22;30723;51.206;3.326;2022-11-18T18:06:16;10.30;99.90
44990;DHT22;30723;51.206;3.326;2022-11-18T18:08:44;10.20;99.90
44990;DHT22;30723;51.206;3.326;2022-11-18T18:11:18;10.30;99.90
44990;DHT22;30723;51.206;3.326;2022-11-18T18:13:44;10.20;99.90
44990;DHT22;30723;51.206;3.326;2022-11-18T18:16:30;10.20;99.90
44990;DHT22;30723;51.206;3.326;2022-11-18T18:19:00;10.10;99.90
44990;DHT22;30723;51.206;3.326;2022-11-18T18:21:26;10.10;99.90
44990;DHT22;30723;51.206;3.326;2022-11-18T18:23:52;10.10;99.90
44990;DHT22;30723;51.206;3.326;2022-11-18T18:26:18;10.10;99.90
44990;DHT22;30723;51.206;3.326;2022-11-18T18:28:44;10.10;99.90
44990;DHT22;30723;51.206;3.326;2022-11-18T18:31:12;10.20;99.90